createdAt,value
2018-04-11T00:00:11.597Z,14.66
2018-04-11T00:02:40.003Z,14.51
2018-04-11T00:05:08.393Z,14.53
2018-04-11T00:07:36.832Z,14.66
2018-04-11T00:10:05.239Z,14.70
2018-04-11T00:12:33.688Z,14.47
2018-04-11T00:15:02.100Z,14.22
2018-04-11T00:17:30.532Z,14.51
2018-04-11T00:19:58.976Z,14.31
2018-04-11T00:22:27.429Z,14.51
2018-04-11T00:24:55.806Z,14.22
2018-04-11T00:27:24.214Z,14.24
2018-04-11T00:29:52.667Z,14.31
2018-04-11T00:32:21.053Z,14.32
2018-04-11T00:34:49.480Z,13.89
2018-04-11T00:37:17.883Z,13.89
2018-04-11T00:39:46.320Z,14.28
2018-04-11T00:42:14.724Z,14.36
2018-04-11T00:44:43.155Z,14.38
2018-04-11T00:47:11.611Z,14.20
2018-04-11T00:49:40.046Z,14.25
2018-04-11T00:52:08.451Z,14.33
2018-04-11T00:54:36.862Z,14.37
2018-04-11T00:57:05.291Z,14.33
2018-04-11T00:59:33.715Z,13.83
2018-04-11T01:02:02.163Z,13.59
2018-04-11T01:04:30.624Z,13.40
2018-04-11T01:06:59.063Z,13.35
2018-04-11T01:09:27.468Z,13.32
2018-04-11T01:11:55.965Z,13.25
2018-04-11T01:14:24.394Z,13.34
2018-04-11T01:16:52.807Z,13.44
2018-04-11T01:19:21.263Z,13.47
2018-04-11T01:21:49.703Z,13.59
2018-04-11T01:24:18.125Z,13.87
2018-04-11T01:26:46.599Z,13.86
2018-04-11T01:29:15.016Z,13.83
2018-04-11T01:31:43.447Z,13.87
2018-04-11T01:34:11.860Z,13.73
2018-04-11T01:36:40.327Z,13.91
2018-04-11T01:39:08.777Z,13.68
2018-04-11T01:41:37.188Z,13.44
2018-04-11T01:44:05.746Z,13.77
2018-04-11T01:46:34.200Z,14.02
2018-04-11T01:49:02.598Z,13.93
2018-04-11T01:51:31.108Z,13.89
2018-04-11T01:53:59.514Z,13.89
2018-04-11T01:56:27.943Z,13.69
2018-04-11T01:58:56.339Z,13.94
2018-04-11T02:01:24.756Z,13.81
2018-04-11T02:03:53.158Z,13.82
2018-04-11T02:06:21.576Z,13.91
2018-04-11T02:08:50.006Z,13.93
2018-04-11T02:11:18.420Z,13.96
2018-04-11T02:13:46.839Z,13.83
2018-04-11T02:16:15.329Z,13.37
2018-04-11T02:18:43.755Z,13.21
2018-04-11T02:21:12.170Z,13.12
2018-04-11T02:23:40.607Z,13.14
2018-04-11T02:26:09.126Z,13.01
2018-04-11T02:28:37.614Z,13.46
2018-04-11T02:31:05.991Z,13.45
2018-04-11T02:33:34.432Z,13.58
2018-04-11T02:36:02.959Z,13.56
2018-04-11T02:38:31.455Z,13.49
2018-04-11T02:40:59.915Z,13.86
2018-04-11T02:43:28.296Z,13.67
2018-04-11T02:45:56.779Z,13.70
2018-04-11T02:48:25.179Z,13.34
2018-04-11T02:50:53.603Z,13.23
2018-04-11T02:53:22.065Z,13.47
2018-04-11T02:55:50.470Z,13.56
2018-04-11T02:58:18.907Z,13.30
2018-04-11T03:00:47.373Z,12.80
2018-04-11T03:03:15.811Z,12.56
2018-04-11T03:05:44.252Z,12.59
2018-04-11T03:08:12.739Z,12.71
2018-04-11T03:10:41.157Z,12.96
2018-04-11T03:13:09.581Z,12.77
2018-04-11T03:15:38.019Z,12.21
2018-04-11T03:18:06.409Z,12.01
2018-04-11T03:20:34.843Z,12.31
2018-04-11T03:23:03.262Z,12.28
2018-04-11T03:25:31.685Z,12.46
2018-04-11T03:28:00.219Z,12.24
2018-04-11T03:30:28.665Z,12.37
2018-04-11T03:32:57.144Z,12.62
2018-04-11T03:35:25.557Z,12.64
2018-04-11T03:37:53.970Z,12.64
2018-04-11T03:40:22.423Z,12.62
2018-04-11T03:42:50.816Z,12.49
2018-04-11T03:45:19.233Z,12.46
2018-04-11T03:47:47.638Z,12.28
2018-04-11T03:50:16.167Z,12.21
2018-04-11T03:52:44.554Z,12.28
2018-04-11T03:55:13.047Z,12.24
2018-04-11T03:57:41.446Z,12.24
2018-04-11T04:00:09.949Z,12.17
2018-04-11T04:02:38.326Z,12.18
2018-04-11T04:05:06.769Z,11.91
2018-04-11T04:07:35.253Z,12.16
2018-04-11T04:10:03.697Z,12.28
2018-04-11T04:12:32.090Z,12.20
2018-04-11T04:15:12.590Z,12.26
2018-04-11T04:17:52.767Z,12.39
2018-04-11T04:20:36.149Z,12.43
2018-04-11T04:23:05.435Z,12.34
2018-04-11T04:25:33.875Z,12.34
2018-04-11T04:28:02.343Z,12.29
2018-04-11T04:30:30.778Z,12.54
2018-04-11T04:32:59.514Z,12.31
2018-04-11T04:35:27.967Z,12.61
2018-04-11T04:37:56.400Z,12.69
2018-04-11T04:40:24.804Z,12.69
2018-04-11T04:42:53.220Z,12.59
2018-04-11T04:45:21.676Z,12.60
2018-04-11T04:47:50.131Z,12.95
2018-04-11T04:50:18.583Z,13.03
2018-04-11T04:52:46.975Z,12.68
2018-04-11T04:55:15.529Z,12.77
2018-04-11T04:57:43.955Z,13.14
2018-04-11T05:00:12.390Z,12.99
2018-04-11T05:02:40.796Z,13.14
2018-04-11T05:05:09.279Z,13.33
2018-04-11T05:07:37.810Z,13.47
2018-04-11T05:10:06.189Z,13.84
2018-04-11T05:12:34.657Z,13.94
2018-04-11T05:15:03.162Z,14.01
2018-04-11T05:17:31.588Z,13.96
2018-04-11T05:20:00.045Z,14.14
2018-04-11T05:22:28.477Z,13.96
2018-04-11T05:24:56.968Z,14.07
2018-04-11T05:27:25.395Z,14.32
2018-04-11T05:29:53.869Z,14.34
2018-04-11T05:32:22.271Z,14.40
2018-04-11T05:34:50.718Z,14.71
2018-04-11T05:37:19.191Z,14.92
2018-04-11T05:39:47.656Z,15.10
2018-04-11T05:42:16.085Z,14.96
2018-04-11T05:44:44.550Z,15.11
2018-04-11T05:47:12.960Z,15.01
2018-04-11T05:49:41.403Z,15.00
2018-04-11T05:52:09.844Z,15.02
2018-04-11T05:54:38.271Z,14.93
2018-04-11T05:57:06.736Z,14.94
2018-04-11T05:59:35.141Z,15.29
2018-04-11T06:02:03.519Z,15.23
2018-04-11T06:04:31.952Z,15.96
2018-04-11T06:07:00.339Z,15.57
2018-04-11T06:09:28.791Z,16.13
2018-04-11T06:11:57.220Z,15.84
2018-04-11T06:14:25.743Z,15.38
2018-04-11T06:16:54.145Z,15.32
2018-04-11T06:19:22.647Z,15.49
2018-04-11T06:21:51.167Z,16.05
2018-04-11T06:24:19.575Z,16.58
2018-04-11T06:26:48.055Z,16.85
2018-04-11T06:29:16.440Z,17.10
2018-04-11T06:31:44.937Z,17.02
2018-04-11T06:34:13.393Z,17.06
2018-04-11T06:36:42.064Z,17.27
2018-04-11T06:39:10.504Z,16.99
2018-04-11T06:41:38.942Z,16.75
2018-04-11T06:44:07.400Z,17.07
2018-04-11T06:46:35.840Z,17.02
2018-04-11T06:49:04.252Z,16.99
2018-04-11T06:51:32.745Z,16.96
2018-04-11T06:54:01.177Z,17.27
2018-04-11T06:56:29.605Z,16.88
2018-04-11T06:58:58.079Z,17.21
2018-04-11T07:01:26.522Z,17.22
2018-04-11T07:03:55.055Z,17.18
2018-04-11T07:06:24.050Z,17.53
2018-04-11T07:08:52.488Z,17.56
2018-04-11T07:11:21.012Z,17.85
2018-04-11T07:13:49.460Z,17.98
2018-04-11T07:16:17.880Z,18.43
2018-04-11T07:18:46.307Z,18.18
2018-04-11T07:21:14.711Z,18.45
2018-04-11T07:23:43.183Z,18.55
2018-04-11T07:26:11.622Z,18.76
2018-04-11T07:28:40.037Z,18.87
2018-04-11T07:31:08.496Z,19.17
2018-04-11T07:33:36.944Z,19.16
2018-04-11T07:36:05.379Z,19.41
2018-04-11T07:38:33.867Z,19.41
2018-04-11T07:41:02.316Z,19.37
2018-04-11T07:43:30.743Z,19.69
2018-04-11T07:45:59.241Z,19.77
2018-04-11T07:48:27.708Z,19.61
2018-04-11T07:50:56.201Z,20.26
2018-04-11T07:53:24.673Z,20.37
2018-04-11T07:55:53.071Z,20.53
2018-04-11T07:58:21.532Z,20.17
2018-04-11T08:00:49.984Z,20.44
2018-04-11T08:03:18.681Z,20.86
2018-04-11T08:05:47.060Z,20.87
2018-04-11T08:08:15.519Z,20.45
2018-04-11T08:10:43.955Z,20.96
2018-04-11T08:13:12.409Z,20.75
2018-04-11T08:15:40.961Z,20.56
2018-04-11T08:18:09.368Z,20.80
2018-04-11T08:20:37.888Z,20.78
2018-04-11T08:23:06.299Z,20.47
2018-04-11T08:25:34.747Z,20.52
2018-04-11T08:28:03.202Z,20.87
2018-04-11T08:30:31.678Z,21.30
2018-04-11T08:33:00.124Z,20.54
2018-04-11T08:35:28.565Z,19.83
2018-04-11T08:37:56.982Z,20.06
2018-04-11T08:40:25.483Z,20.74
2018-04-11T08:42:53.961Z,20.88
2018-04-11T08:45:22.380Z,21.03
2018-04-11T08:47:50.867Z,21.69
2018-04-11T08:50:19.290Z,21.95
2018-04-11T08:52:47.811Z,22.67
2018-04-11T08:55:16.247Z,23.12
2018-04-11T08:57:44.693Z,22.83
2018-04-11T09:00:13.093Z,23.03
2018-04-11T09:02:41.492Z,22.64
2018-04-11T09:05:09.919Z,22.47
2018-04-11T09:07:38.343Z,22.08
2018-04-11T09:10:06.803Z,21.68
2018-04-11T09:12:35.186Z,21.62
2018-04-11T09:15:03.626Z,21.99
2018-04-11T09:17:32.148Z,22.48
2018-04-11T09:20:00.602Z,23.03
2018-04-11T09:22:29.123Z,23.63
2018-04-11T09:24:57.554Z,23.59
2018-04-11T09:27:26.035Z,23.22
2018-04-11T09:29:54.508Z,23.85
2018-04-11T09:32:22.968Z,24.30
2018-04-11T09:34:51.475Z,24.72
2018-04-11T09:37:19.927Z,24.79
2018-04-11T09:39:48.391Z,24.96
2018-04-11T09:42:16.820Z,25.23
2018-04-11T09:44:45.268Z,25.22
2018-04-11T09:47:13.713Z,25.46
2018-04-11T09:49:42.144Z,24.65
2018-04-11T09:52:10.624Z,24.65
2018-04-11T09:54:39.055Z,24.89
2018-04-11T09:57:07.664Z,24.65
2018-04-11T09:59:36.132Z,25.05
2018-04-11T10:02:06.384Z,25.49
2018-04-11T10:04:34.906Z,25.65
2018-04-11T10:07:03.336Z,25.96
2018-04-11T10:09:31.787Z,26.34
2018-04-11T10:12:00.198Z,26.34
2018-04-11T10:14:28.700Z,25.79
2018-04-11T10:16:57.104Z,26.42
2018-04-11T10:19:25.505Z,27.02
2018-04-11T10:21:53.959Z,27.62
2018-04-11T10:24:22.428Z,27.69
2018-04-11T10:26:50.894Z,27.80
2018-04-11T10:29:19.323Z,26.98
2018-04-11T10:31:47.833Z,27.47
2018-04-11T10:34:16.398Z,27.92
2018-04-11T10:36:44.862Z,27.80
2018-04-11T10:39:13.337Z,28.06
2018-04-11T10:41:41.738Z,28.06
2018-04-11T10:44:10.267Z,27.06
2018-04-11T10:46:38.771Z,27.06
2018-04-11T10:49:07.167Z,27.49
2018-04-11T10:51:35.640Z,27.05
2018-04-11T10:54:04.081Z,27.62
2018-04-11T10:56:32.510Z,27.84
2018-04-11T10:59:00.924Z,27.36
2018-04-11T11:01:29.372Z,27.75
2018-04-11T11:03:57.843Z,28.09
2018-04-11T11:06:26.327Z,28.41
2018-04-11T11:08:54.815Z,27.86
2018-04-11T11:11:23.237Z,27.16
2018-04-11T11:13:51.704Z,27.80
2018-04-11T11:16:20.241Z,26.69
2018-04-11T11:18:48.665Z,25.33
2018-04-11T11:21:17.186Z,25.07
2018-04-11T11:23:45.624Z,24.78
2018-04-11T11:26:14.028Z,26.47
2018-04-11T11:28:42.502Z,27.80
2018-04-11T11:31:10.949Z,28.85
2018-04-11T11:33:39.338Z,29.19
2018-04-11T11:36:07.773Z,29.76
2018-04-11T11:38:36.237Z,29.52
2018-04-11T11:41:04.684Z,28.69
2018-04-11T11:43:33.153Z,29.00
2018-04-11T11:46:01.536Z,29.48
2018-04-11T11:48:30.029Z,29.62
2018-04-11T11:50:58.483Z,29.92
2018-04-11T11:53:26.954Z,30.20
2018-04-11T11:55:55.351Z,31.01
2018-04-11T11:58:23.831Z,29.65
2018-04-11T12:00:52.247Z,30.30
2018-04-11T12:03:20.688Z,30.07
2018-04-11T12:05:49.168Z,30.41
2018-04-11T12:08:17.752Z,29.77
2018-04-11T12:10:46.195Z,30.53
2018-04-11T12:13:14.628Z,29.78
2018-04-11T12:15:43.139Z,30.29
2018-04-11T12:18:11.547Z,30.93
2018-04-11T12:20:39.944Z,30.42
2018-04-11T12:23:08.412Z,31.06
2018-04-11T12:25:36.803Z,28.92
2018-04-11T12:28:05.275Z,28.07
2018-04-11T12:30:33.672Z,27.48
2018-04-11T12:33:02.085Z,26.72
2018-04-11T12:35:30.523Z,27.26
2018-04-11T12:37:58.918Z,26.91
2018-04-11T12:40:27.401Z,28.17
2018-04-11T12:42:55.823Z,29.38
2018-04-11T12:45:24.239Z,29.14
2018-04-11T12:47:52.680Z,29.14
2018-04-11T12:50:21.102Z,29.26
2018-04-11T12:52:49.582Z,30.84
2018-04-11T12:55:17.979Z,31.77
2018-04-11T12:57:46.423Z,32.90
2018-04-11T13:00:14.882Z,32.20
2018-04-11T13:02:43.296Z,31.51
2018-04-11T13:05:11.718Z,32.41
2018-04-11T13:07:40.189Z,31.26
2018-04-11T13:10:08.607Z,28.64
2018-04-11T13:12:37.149Z,26.11
2018-04-11T13:15:05.678Z,26.92
2018-04-11T13:17:34.136Z,28.52
2018-04-11T13:20:02.607Z,29.31
2018-04-11T13:22:30.995Z,31.44
2018-04-11T13:24:59.531Z,32.12
2018-04-11T13:27:27.945Z,31.82
2018-04-11T13:29:56.379Z,32.46
2018-04-11T13:32:24.747Z,32.76
2018-04-11T13:34:53.199Z,33.02
2018-04-11T13:37:21.619Z,32.02
2018-04-11T13:39:50.018Z,32.86
2018-04-11T13:42:18.436Z,33.04
2018-04-11T13:44:46.882Z,32.75
2018-04-11T13:47:15.326Z,34.13
2018-04-11T13:49:43.756Z,33.70
2018-04-11T13:52:12.227Z,34.80
2018-04-11T13:54:40.747Z,35.26
2018-04-11T13:57:09.235Z,31.90
2018-04-11T13:59:37.658Z,30.93
2018-04-11T14:02:06.119Z,30.35
2018-04-11T14:04:34.612Z,28.90
2018-04-11T14:07:03.055Z,28.82
2018-04-11T14:09:31.476Z,31.13
2018-04-11T14:11:59.936Z,31.95
2018-04-11T14:14:28.461Z,33.37
2018-04-11T14:16:56.856Z,35.10
2018-04-11T14:19:25.238Z,35.33
2018-04-11T14:21:53.706Z,35.33
2018-04-11T14:24:22.119Z,33.38
2018-04-11T14:26:50.560Z,33.24
2018-04-11T14:29:19.009Z,34.06
2018-04-11T14:31:47.452Z,33.93
2018-04-11T14:34:15.840Z,34.28
2018-04-11T14:36:44.276Z,35.03
2018-04-11T14:39:12.664Z,34.68
2018-04-11T14:41:41.123Z,34.88
2018-04-11T14:44:09.619Z,34.84
2018-04-11T14:46:38.107Z,35.94
2018-04-11T14:49:06.630Z,36.24
2018-04-11T14:51:35.075Z,36.65
2018-04-11T14:54:03.595Z,35.00
2018-04-11T14:56:32.036Z,34.28
2018-04-11T14:59:00.477Z,35.31
2018-04-11T15:01:28.867Z,35.84
2018-04-11T15:03:57.420Z,35.93
2018-04-11T15:06:25.868Z,36.22
2018-04-11T15:08:54.326Z,35.86
2018-04-11T15:11:23.510Z,36.25
2018-04-11T15:13:51.979Z,36.15
2018-04-11T15:16:20.379Z,36.65
2018-04-11T15:18:48.884Z,35.72
2018-04-11T15:21:17.315Z,35.23
2018-04-11T15:23:45.768Z,36.05
2018-04-11T15:26:14.203Z,35.51
2018-04-11T15:28:42.711Z,36.23
2018-04-11T15:31:11.137Z,35.91
2018-04-11T15:33:39.575Z,35.10
2018-04-11T15:36:07.959Z,34.84
2018-04-11T15:38:36.472Z,35.34
2018-04-11T15:41:04.989Z,34.78
2018-04-11T15:43:33.510Z,34.76
2018-04-11T15:46:01.985Z,35.20
2018-04-11T15:48:32.768Z,33.51
2018-04-11T15:51:01.178Z,32.46
2018-04-11T15:53:29.600Z,32.47
2018-04-11T15:55:58.426Z,32.92
2018-04-11T15:58:26.831Z,32.09
2018-04-11T16:00:55.260Z,32.38
2018-04-11T16:03:24.197Z,32.19
2018-04-11T16:05:52.576Z,32.25
2018-04-11T16:08:21.079Z,32.23
2018-04-11T16:10:50.019Z,31.71
2018-04-11T16:13:18.490Z,29.91
2018-04-11T16:15:46.992Z,28.13
2018-04-11T16:18:15.795Z,27.72
2018-04-11T16:20:44.188Z,27.08
2018-04-11T16:23:12.601Z,26.21
2018-04-11T16:25:41.455Z,25.65
2018-04-11T16:28:09.880Z,24.85
2018-04-11T16:30:38.284Z,24.68
2018-04-11T16:33:06.881Z,24.36
2018-04-11T16:35:35.295Z,23.80
2018-04-11T16:38:03.683Z,23.43
2018-04-11T16:40:34.325Z,22.95
2018-04-11T16:43:02.733Z,22.75
2018-04-11T16:45:31.171Z,22.82
2018-04-11T16:47:59.937Z,22.32
2018-04-11T16:50:28.361Z,21.85
2018-04-11T16:52:56.865Z,21.72
2018-04-11T16:55:25.371Z,21.65
2018-04-11T16:57:54.751Z,21.27
2018-04-11T17:00:23.376Z,21.00
2018-04-11T17:02:51.794Z,20.88
2018-04-11T17:05:20.284Z,20.74
2018-04-11T17:07:49.193Z,20.53
2018-04-11T17:10:17.764Z,20.45
2018-04-11T17:12:46.463Z,20.27
2018-04-11T17:15:19.676Z,20.18
2018-04-11T17:17:51.103Z,20.28
2018-04-11T17:20:20.286Z,20.20
2018-04-11T17:26:01.786Z,20.15
2018-04-11T17:28:42.115Z,19.91
2018-04-11T17:31:22.509Z,20.08
2018-04-11T17:33:52.685Z,19.56
2018-04-11T17:36:22.247Z,19.20
2018-04-11T17:38:50.819Z,19.50
2018-04-11T17:41:19.659Z,19.01
2018-04-11T17:43:49.010Z,18.89
2018-04-11T17:46:17.466Z,18.66
2018-04-11T17:48:46.771Z,18.90
2018-04-11T17:51:15.227Z,18.78
2018-04-11T17:53:43.703Z,18.92
2018-04-11T17:56:12.271Z,19.09
2018-04-11T17:58:41.057Z,19.08
2018-04-11T18:01:09.956Z,19.10
2018-04-11T18:03:38.843Z,19.07
2018-04-11T18:06:08.246Z,18.85
2018-04-11T18:08:37.755Z,19.05
2018-04-11T18:11:07.161Z,18.91
2018-04-11T18:13:36.509Z,18.86
2018-04-11T18:16:05.755Z,18.73
2018-04-11T18:18:34.397Z,18.73
2018-04-11T18:21:02.847Z,18.73
2018-04-11T18:23:31.282Z,18.88
2018-04-11T18:25:59.923Z,18.80
2018-04-11T18:28:28.375Z,18.75
2018-04-11T18:30:56.823Z,18.85
2018-04-11T18:33:25.307Z,18.37
2018-04-11T18:35:53.746Z,18.53
2018-04-11T18:38:22.195Z,18.40
2018-04-11T18:40:50.647Z,18.28
2018-04-11T18:43:19.092Z,18.21
2018-04-11T18:45:47.493Z,18.15
2018-04-11T18:48:15.905Z,17.66
2018-04-11T18:50:44.305Z,17.54
2018-04-11T18:53:12.747Z,17.45
2018-04-11T18:55:41.140Z,17.47
2018-04-11T18:58:09.599Z,17.41
2018-04-11T19:00:38.109Z,17.60
2018-04-11T19:03:06.511Z,17.61
2018-04-11T19:05:34.892Z,17.45
2018-04-11T19:08:03.349Z,17.42
2018-04-11T19:10:31.849Z,17.41
2018-04-11T19:13:00.238Z,17.06
2018-04-11T19:15:28.744Z,16.98
2018-04-11T19:17:57.200Z,17.08
2018-04-11T19:20:25.652Z,17.06
2018-04-11T19:22:54.097Z,16.74
2018-04-11T19:25:22.552Z,16.48
2018-04-11T19:27:50.976Z,16.64
2018-04-11T19:30:19.502Z,16.45
2018-04-11T19:32:47.970Z,16.32
2018-04-11T19:35:16.670Z,16.49
2018-04-11T19:37:45.215Z,16.77
2018-04-11T19:40:13.674Z,16.46
2018-04-11T19:42:42.321Z,16.15
2018-04-11T19:45:10.852Z,16.38
2018-04-11T19:47:39.371Z,16.33
2018-04-11T19:50:07.961Z,16.13
2018-04-11T19:52:36.395Z,16.17
2018-04-11T19:55:04.835Z,16.17
2018-04-11T19:57:33.307Z,16.24
2018-04-11T20:00:01.771Z,16.21
2018-04-11T20:02:30.216Z,15.88
2018-04-11T20:04:58.604Z,15.87
2018-04-11T20:07:27.076Z,15.95
2018-04-11T20:09:55.547Z,15.38
2018-04-11T20:12:23.936Z,15.47
2018-04-11T20:14:52.382Z,15.61
2018-04-11T20:17:20.875Z,15.64
2018-04-11T20:19:49.411Z,15.62
2018-04-11T20:22:17.852Z,15.35
2018-04-11T20:24:46.256Z,15.55
2018-04-11T20:27:14.699Z,15.60
2018-04-11T20:29:43.196Z,15.51
2018-04-11T20:32:11.614Z,15.62
2018-04-11T20:34:40.104Z,15.49
2018-04-11T20:37:08.521Z,15.26
2018-04-11T20:39:36.983Z,15.29
2018-04-11T20:42:05.494Z,15.27
2018-04-11T20:44:33.907Z,14.83
2018-04-11T20:47:02.401Z,14.78
2018-04-11T20:49:30.793Z,15.06
2018-04-11T20:51:59.224Z,14.79
2018-04-11T20:54:27.666Z,14.92
2018-04-11T20:56:56.076Z,14.73
2018-04-11T20:59:24.611Z,14.75
2018-04-11T21:01:53.074Z,14.74
2018-04-11T21:04:21.510Z,14.53
2018-04-11T21:06:49.963Z,14.67
2018-04-11T21:09:18.411Z,14.62
2018-04-11T21:11:46.856Z,14.44
2018-04-11T21:14:15.284Z,14.22
2018-04-11T21:16:43.704Z,14.37
2018-04-11T21:19:12.171Z,13.95
2018-04-11T21:21:40.617Z,14.23
2018-04-11T21:24:09.032Z,14.09
2018-04-11T21:26:37.475Z,13.93
2018-04-11T21:29:05.897Z,14.07
2018-04-11T21:31:34.336Z,14.12
2018-04-11T21:34:02.768Z,14.03
2018-04-11T21:36:31.236Z,14.00
2018-04-11T21:38:59.672Z,14.05
2018-04-11T21:41:28.083Z,13.98
2018-04-11T21:43:56.550Z,14.01
2018-04-11T21:46:24.954Z,13.95
2018-04-11T21:48:53.405Z,13.97
2018-04-11T21:51:21.797Z,13.71
2018-04-11T21:53:50.240Z,13.38
2018-04-11T21:56:18.672Z,13.29
2018-04-11T21:58:47.062Z,13.44
2018-04-11T22:01:15.473Z,13.52
2018-04-11T22:03:43.877Z,13.57
2018-04-11T22:06:12.344Z,13.55
2018-04-11T22:08:40.820Z,13.41
2018-04-11T22:11:09.228Z,13.55
2018-04-11T22:13:37.634Z,13.31
2018-04-11T22:16:06.084Z,13.27
2018-04-11T22:18:34.626Z,13.26
2018-04-11T22:21:03.083Z,13.30
2018-04-11T22:23:31.529Z,13.45
2018-04-11T22:25:59.930Z,13.11
2018-04-11T22:28:28.363Z,13.39
2018-04-11T22:30:56.802Z,13.11
2018-04-11T22:33:25.196Z,12.91
2018-04-11T22:35:53.651Z,12.83
2018-04-11T22:38:22.101Z,13.04
2018-04-11T22:40:50.527Z,12.99
2018-04-11T22:43:18.961Z,12.93
2018-04-11T22:45:47.400Z,13.01
2018-04-11T22:48:15.853Z,12.56
2018-04-11T22:50:44.389Z,12.57
2018-04-11T22:53:12.800Z,12.84
2018-04-11T22:55:41.240Z,12.99
2018-04-11T22:58:09.671Z,12.96
2018-04-11T23:00:38.188Z,12.89
2018-04-11T23:03:06.599Z,12.87
2018-04-11T23:05:34.996Z,12.67
2018-04-11T23:08:03.436Z,12.59
2018-04-11T23:10:31.903Z,12.72
2018-04-11T23:13:00.357Z,12.77
2018-04-11T23:15:28.856Z,12.68
2018-04-11T23:17:57.340Z,12.60
2018-04-11T23:20:25.831Z,12.51
2018-04-11T23:22:54.301Z,12.56
2018-04-11T23:25:22.821Z,12.15
2018-04-11T23:27:51.237Z,12.47
2018-04-11T23:30:19.656Z,12.47
2018-04-11T23:32:48.083Z,12.30
2018-04-11T23:35:16.565Z,12.28
2018-04-11T23:37:45.038Z,12.46
2018-04-11T23:40:13.479Z,12.31
2018-04-11T23:42:41.975Z,12.33
2018-04-11T23:45:10.380Z,12.34
2018-04-11T23:47:38.875Z,12.33
2018-04-11T23:50:07.349Z,12.31
2018-04-11T23:52:35.899Z,12.24
2018-04-11T23:55:04.355Z,12.25
2018-04-11T23:57:32.852Z,12.35
